Time;durP1;ratioP1;P1;durP2;ratioP2;P2;SDS_P1;SDS_P2;PMS_P1;PMS_P2;Temp;Humidity;BMP_temperature;BMP_pressure;BME280_temperature;BME280_humidity;BME280_pressure;Samples;Min_cycle;Max_cycle;Signal;HPM_P1;HPM_P2
2023/08/06 00:01:01;;;;;;;11.87;10.90;;;17.60;99.90;;;;;;5003194;28;21031;-85
2023/08/06 00:03:27;;;;;;;11.73;10.50;;;17.40;1.00;;;;;;5003164;28;20456;-86
2023/08/06 00:05:56;;;;;;;10.60;9.50;;;17.60;99.90;;;;;;5003796;28;20462;-85
2023/08/06 00:08:22;;;;;;;10.90;9.80;;;17.60;99.90;;;;;;5003065;28;20464;-85
2023/08/06 00:10:49;;;;;;;11.50;10.50;;;17.60;99.90;;;;;;5003389;28;20532;-85
2023/08/06 00:13:16;;;;;;;10.30;8.63;;;17.70;99.90;;;;;;5002571;28;20484;-85
2023/08/06 00:15:43;;;;;;;11.10;10.00;;;17.40;99.90;;;;;;5003125;28;20526;-86
2023/08/06 00:18:10;;;;;;;10.33;9.40;;;17.60;99.90;;;;;;5004640;28;20499;-85
2023/08/06 00:20:40;;;;;;;10.80;9.80;;;17.60;99.90;;;;;;5004879;28;20827;-86
2023/08/06 00:23:08;;;;;;;11.27;10.27;;;17.60;99.90;;;;;;5002568;28;20437;-85
2023/08/06 00:25:35;;;;;;;16.73;10.40;;;17.60;99.90;;;;;;5010923;28;20451;-85
2023/08/06 00:28:02;;;;;;;11.47;10.50;;;17.50;1.00;;;;;;5016597;28;20479;-85
2023/08/06 00:30:29;;;;;;;10.00;9.00;;;17.50;1.00;;;;;;5016984;28;20451;-83
2023/08/06 00:32:55;;;;;;;10.70;9.80;;;17.50;1.00;;;;;;5021623;28;20459;-86
2023/08/06 00:35:22;;;;;;;11.00;9.93;;;17.40;1.00;;;;;;5021713;28;20507;-85
2023/08/06 00:37:49;;;;;;;10.23;9.33;;;17.40;1.00;;;;;;5016508;28;20534;-86
2023/08/06 00:40:53;;;;;;;10.97;9.93;;;17.50;99.90;;;;;;5021253;28;20502;-88
2023/08/06 00:43:27;;;;;;;10.53;9.53;;;;;;;;;;5019966;28;20420;-89
2023/08/06 00:45:58;;;;;;;10.60;9.50;;;;;;;;;;5018138;28;20499;-89
2023/08/06 00:48:42;;;;;;;11.73;10.63;;;;;;;;;;5014923;28;20452;-89
2023/08/06 00:51:25;;;;;;;11.93;10.80;;;17.40;58.90;;;;;;5007320;28;20530;-90
2023/08/06 00:53:53;;;;;;;10.50;9.50;;;17.40;49.10;;;;;;5003799;28;20471;-89
2023/08/06 00:56:32;;;;;;;10.13;9.23;;;17.50;99.90;;;;;;5001411;28;20549;-90
2023/08/06 00:59:19;;;;;;;11.27;10.27;;;17.30;99.90;;;;;;5000468;28;20476;-90
2023/08/06 01:04:57;;;;;;;11.40;10.23;;;17.20;1.00;;;;;;5001263;28;20494;-90
2023/08/06 01:07:46;;;;;;;10.37;9.37;;;17.20;1.00;;;;;;5001354;28;20505;-90
2023/08/06 01:10:52;;;;;;;10.70;9.63;;;17.20;1.00;;;;;;5002045;28;20447;-89
2023/08/06 01:13:56;;;;;;;10.47;9.57;;;17.20;1.00;;;;;;4990793;28;20562;-90
2023/08/06 01:16:52;;;;;;;11.27;8.73;;;17.10;1.00;;;;;;5001665;28;20482;-90
2023/08/06 01:19:36;;;;;;;11.10;10.10;;;17.10;1.00;;;;;;5002707;28;20518;-89
2023/08/06 01:22:36;;;;;;;11.07;9.90;;;17.10;1.00;;;;;;5010645;28;20490;-89
2023/08/06 01:25:34;;;;;;;12.10;9.87;;;17.10;1.00;;;;;;5006567;28;20864;-90
2023/08/06 01:28:16;;;;;;;10.90;10.00;;;17.10;1.00;;;;;;5005420;28;20469;-90
2023/08/06 01:30:58;;;;;;;12.43;11.00;;;17.10;1.00;;;;;;5005374;28;20518;-89
2023/08/06 01:33:52;;;;;;;10.67;9.67;;;17.10;1.00;;;;;;5004836;28;20478;-89
2023/08/06 01:36:30;;;;;;;11.90;10.40;;;17.00;19.00;;;;;;5002030;28;20490;-89
2023/08/06 01:39:30;;;;;;;11.30;10.20;;;16.50;42.10;;;;;;5008143;28;20479;-89
2023/08/06 01:42:03;;;;;;;10.57;9.67;;;17.00;84.20;;;;;;5004759;28;20462;-89
2023/08/06 01:44:43;;;;;;;11.43;10.30;;;17.00;99.90;;;;;;5007552;28;20426;-89
2023/08/06 01:47:13;;;;;;;10.57;9.57;;;;;;;;;;5006425;28;20468;-89
2023/08/06 01:49:44;;;;;;;11.70;10.53;;;;;;;;;;5010720;28;20459;-89
2023/08/06 01:52:35;;;;;;;11.30;10.20;;;16.80;99.90;;;;;;5020004;28;20439;-88
2023/08/06 01:55:10;;;;;;;11.73;10.60;;;16.80;99.90;;;;;;5019816;28;20520;-89
2023/08/06 01:57:41;;;;;;;12.27;10.97;;;;;;;;;;5020215;28;20486;-88
2023/08/06 02:00:12;;;;;;;11.03;10.03;;;;;;;;;;5020288;28;20440;-89
2023/08/06 02:02:48;;;;;;;12.40;11.10;;;;;;;;;;5016534;28;20438;-88
2023/08/06 02:05:16;;;;;;;11.93;10.80;;;;;;;;;;5012677;28;20447;-89
2023/08/06 02:08:04;;;;;;;13.43;12.23;;;16.70;99.90;;;;;;5004444;28;20472;-90
2023/08/06 02:10:36;;;;;;;12.50;11.30;;;16.70;99.90;;;;;;5002477;28;20450;-91
2023/08/06 02:13:07;;;;;;;13.03;11.77;;;;;;;;;;5001179;28;20475;-89
2023/08/06 02:15:44;;;;;;;13.53;12.23;;;;;;;;;;5001786;28;20524;-90
2023/08/06 02:23:54;;;;;;;13.73;11.50;;;;;;;;;;4999962;28;20483;-90
2023/08/06 02:35:13;;;;;;;13.30;11.90;;;16.50;99.90;;;;;;5007910;28;20435;-91
2023/08/06 02:37:42;;;;;;;12.97;11.60;;;;;;;;;;5003464;28;20447;-91
2023/08/06 02:40:16;;;;;;;16.07;12.70;;;16.50;99.90;;;;;;5000888;28;20441;-91
2023/08/06 02:46:10;;;;;;;13.20;11.90;;;16.40;99.90;;;;;;4960772;28;20438;-91
2023/08/06 02:49:09;;;;;;;11.93;10.63;;;16.40;99.90;;;;;;4998951;28;20506;-91
2023/08/06 02:51:39;;;;;;;11.50;10.40;;;;;;;;;;4999965;28;20540;-91
2023/08/06 03:38:00;;;;;;;11.27;10.10;;;16.10;99.90;;;;;;3933836;22;20592;-89
2023/08/06 03:47:27;;;;;;;11.10;9.93;;;16.00;99.90;;;;;;4927173;29;20497;-91
2023/08/06 03:50:29;;;;;;;9.47;8.67;;;16.00;99.90;;;;;;4928108;28;20450;-91
2023/08/06 03:57:06;;;;;;;11.40;9.37;;;16.00;99.90;;;;;;4922949;29;20505;-90
2023/08/06 04:13:31;;;;;;;11.60;9.67;;;15.90;99.90;;;;;;4930235;28;20455;-90
2023/08/06 04:16:14;;;;;;;11.20;10.00;;;15.90;99.90;;;;;;4958965;28;20495;-90
2023/08/06 04:18:55;;;;;;;13.67;9.63;;;15.90;99.90;;;;;;5010910;28;20485;-90
2023/08/06 04:21:28;;;;;;;10.20;9.23;;;;;;;;;;5008333;28;20499;-89
2023/08/06 04:24:17;;;;;;;13.80;9.33;;;15.90;99.90;;;;;;5005975;28;20445;-90
2023/08/06 04:27:13;;;;;;;10.87;9.90;;;15.90;99.90;;;;;;5005235;28;20461;-90
2023/08/06 04:29:52;;;;;;;10.20;9.33;;;;;;;;;;5005154;28;20829;-90
2023/08/06 04:33:03;;;;;;;;;;;;;;;;;;;;;
2023/08/06 04:39:48;;;;;;;11.67;10.47;;;15.90;99.90;;;;;;4998878;28;20528;-89
2023/08/06 04:46:09;;;;;;;12.00;10.80;;;16.60;99.90;;;;;;4979535;28;20443;-89
2023/08/06 05:11:30;;;;;;;10.27;9.27;;;16.00;99.90;;;;;;4938574;29;20916;-89
2023/08/06 05:14:42;;;;;;;11.80;10.60;;;16.00;99.90;;;;;;4941686;29;20461;-89
2023/08/06 05:44:37;;;;;;;10.80;9.60;;;16.00;99.90;;;;;;4936919;29;20944;-90
2023/08/06 05:57:52;;;;;;;;;;;;;;;;;;;;;
2023/08/06 06:15:04;;;;;;;9.47;8.47;;;16.00;99.90;;;;;;3383903;22;20524;-89
2023/08/06 08:10:45;;;;;;;10.67;9.10;;;16.60;99.90;;;;;;4942872;29;20443;-90
2023/08/06 09:37:41;;;;;;;14.97;13.47;;;17.40;99.90;;;;;;4937339;29;20517;-91
2023/08/06 09:40:47;;;;;;;17.00;15.40;;;17.50;99.90;;;;;;4956663;28;20452;-90
2023/08/06 09:43:28;;;;;;;17.10;15.30;;;17.70;99.90;;;;;;5020203;28;20427;-91
2023/08/06 09:49:28;;;;;;;15.80;14.20;;;17.50;99.90;;;;;;5001945;28;20479;-90
2023/08/06 10:08:50;;;;;;;16.57;15.00;;;17.30;99.90;;;;;;5198548;22;20490;-90
2023/08/06 10:15:32;;;;;;;16.23;14.60;;;17.50;99.90;;;;;;4893817;29;20457;-89
2023/08/06 10:18:21;;;;;;;16.60;15.00;;;17.40;99.90;;;;;;4906015;29;20500;-89
2023/08/06 10:38:37;;;;;;;18.80;16.47;;;16.80;99.90;;;;;;4832856;29;20580;-90
2023/08/06 10:41:18;;;;;;;22.67;18.10;;;16.80;99.90;;;;;;4942162;29;20462;-89
2023/08/06 10:43:45;;;;;;;22.90;18.87;;;;;;;;;;4993074;28;20455;-89
2023/08/06 10:46:23;;;;;;;20.70;17.57;;;16.70;99.90;;;;;;4997002;28;20456;-90
2023/08/06 10:48:51;;;;;;;22.77;19.80;;;;;;;;;;4985951;28;20460;-89
2023/08/06 10:51:20;;;;;;;20.53;17.97;;;;;;;;;;4985288;28;20459;-89
2023/08/06 10:54:15;;;;;;;19.70;17.60;;;16.80;99.90;;;;;;4989757;28;20483;-89
2023/08/06 10:56:44;;;;;;;17.83;15.30;;;;;;;;;;4988687;28;20464;-87
2023/08/06 10:59:11;;;;;;;17.17;15.37;;;;;;;;;;4998516;28;20469;-90
2023/08/06 11:01:55;;;;;;;21.50;16.47;;;16.80;99.90;;;;;;4999610;28;20444;-91
2023/08/06 11:04:32;;;;;;;19.97;17.97;;;16.60;99.90;;;;;;4996727;28;20460;-88
2023/08/06 11:06:59;;;;;;;15.27;12.83;;;;;;;;;;4996155;28;20443;-88
2023/08/06 11:10:18;;;;;;;15.83;12.90;;;16.70;99.90;;;;;;4986384;28;20467;-88
2023/08/06 11:12:46;;;;;;;13.33;12.00;;;;;;;;;;4987595;28;20489;-90
2023/08/06 11:15:27;;;;;;;17.00;14.03;;;;;;;;;;4990100;28;20448;-91
2023/08/06 11:17:56;;;;;;;15.13;13.57;;;;;;;;;;4993004;28;20475;-91
2023/08/06 11:20:45;;;;;;;18.77;16.77;;;16.50;99.90;;;;;;4998573;28;20455;-90
2023/08/06 11:23:42;;;;;;;16.73;15.03;;;16.80;99.90;;;;;;4997743;28;20463;-90
2023/08/06 11:26:29;;;;;;;16.13;14.53;;;16.70;99.90;;;;;;4992308;28;20471;-90
2023/08/06 11:29:10;;;;;;;16.27;14.67;;;16.80;99.90;;;;;;4993080;28;20579;-90
2023/08/06 11:31:40;;;;;;;17.30;15.60;;;17.20;99.90;;;;;;4995415;28;20543;-90
2023/08/06 11:34:20;;;;;;;;;;;;;;;;;;;;;
2023/08/06 11:37:05;;;;;;;16.37;14.07;;;16.80;99.90;;;;;;4987225;28;20459;-91
2023/08/06 11:39:35;;;;;;;15.83;14.33;;;;;;;;;;4986068;28;20833;-90
2023/08/06 11:42:14;;;;;;;16.33;14.73;;;16.90;99.90;;;;;;4984607;28;20441;-90
2023/08/06 11:44:48;;;;;;;14.17;12.67;;;17.00;99.90;;;;;;4983752;28;20474;-90
2023/08/06 11:47:19;;;;;;;18.53;15.23;;;17.20;99.90;;;;;;4983596;28;20979;-89
2023/08/06 11:49:56;;;;;;;16.80;14.00;;;17.20;99.90;;;;;;4984175;28;20524;-89
2023/08/06 11:52:34;;;;;;;14.97;13.57;;;17.10;99.90;;;;;;4990102;28;20460;-91
2023/08/06 11:55:24;;;;;;;;;;;;;;;;;;;;;
2023/08/06 11:58:06;;;;;;;15.23;13.60;;;16.90;99.90;;;;;;4990242;28;20492;-90
2023/08/06 12:03:27;;;;;;;13.30;12.00;;;17.00;99.90;;;;;;4980527;28;20452;-91
2023/08/06 12:05:58;;;;;;;14.10;12.60;;;16.90;99.90;;;;;;4988958;28;20445;-92
2023/08/06 12:08:28;;;;;;;15.83;13.40;;;16.90;99.90;;;;;;4987117;28;20495;-89
2023/08/06 12:10:55;;;;;;;15.30;13.67;;;;;;;;;;4987743;28;20476;-89
2023/08/06 12:13:23;;;;;;;16.67;15.07;;;17.00;99.90;;;;;;4988274;28;20507;-89
2023/08/06 12:15:52;;;;;;;16.30;14.60;;;17.00;99.90;;;;;;4986789;28;20546;-89
2023/08/06 12:18:19;;;;;;;18.40;15.67;;;17.20;99.90;;;;;;4986463;28;20488;-89
2023/08/06 12:20:46;;;;;;;19.37;16.80;;;17.20;99.90;;;;;;4985469;28;20463;-89
2023/08/06 12:23:15;;;;;;;15.83;14.20;;;17.20;99.90;;;;;;4987754;28;20457;-89
2023/08/06 12:25:42;;;;;;;15.87;14.37;;;17.20;99.90;;;;;;4994542;28;20448;-88
2023/08/06 12:28:10;;;;;;;15.37;13.57;;;17.00;99.90;;;;;;4986705;28;20556;-89
2023/08/06 12:30:41;;;;;;;14.97;13.37;;;17.50;99.90;;;;;;4988367;28;20436;-89
2023/08/06 12:33:09;;;;;;;18.70;15.13;;;17.30;99.90;;;;;;5001789;28;20433;-89
2023/08/06 12:35:37;;;;;;;16.63;14.90;;;17.20;99.90;;;;;;4985793;28;20445;-89
2023/08/06 12:38:04;;;;;;;16.33;14.73;;;17.50;99.90;;;;;;4986863;28;20484;-89
2023/08/06 12:40:31;;;;;;;15.77;14.17;;;16.20;99.90;;;;;;4991262;28;21026;-89
2023/08/06 12:42:59;;;;;;;16.13;14.47;;;17.00;99.90;;;;;;4987764;28;20463;-89
2023/08/06 12:45:26;;;;;;;14.50;13.10;;;17.00;99.90;;;;;;4987275;28;20453;-89
2023/08/06 12:47:58;;;;;;;15.70;14.00;;;16.90;99.90;;;;;;4999633;28;20467;-90
2023/08/06 12:50:35;;;;;;;;;;;;;;;;;;;;;
2023/08/06 12:53:05;;;;;;;15.80;14.10;;;;;;;;;;4987143;28;20447;-90
2023/08/06 12:55:40;;;;;;;14.50;13.03;;;;;;;;;;4985837;28;20446;-89
2023/08/06 12:58:22;;;;;;;13.93;11.90;;;16.90;99.90;;;;;;4985019;28;20486;-89
2023/08/06 13:01:04;;;;;;;15.93;12.83;;;16.90;99.90;;;;;;4985945;28;20441;-88
2023/08/06 13:09:16;;;;;;;13.13;11.70;;;16.90;99.90;;;;;;4981841;28;20479;-89
2023/08/06 13:11:50;;;;;;;13.50;11.10;;;;;;;;;;4995796;28;20467;-90
2023/08/06 13:14:28;;;;;;;13.13;11.70;;;16.90;99.90;;;;;;5001454;28;20419;-90
2023/08/06 13:16:55;;;;;;;12.90;11.20;;;;;;;;;;4993658;28;20464;-90
2023/08/06 13:19:39;;;;;;;13.27;12.00;;;16.90;99.90;;;;;;4992802;28;20498;-89
2023/08/06 13:22:09;;;;;;;13.77;12.37;;;;;;;;;;4984788;28;20458;-89
2023/08/06 13:24:39;;;;;;;13.10;11.50;;;;;;;;;;4983118;28;20806;-89
2023/08/06 13:27:09;;;;;;;19.37;12.07;;;;;;;;;;4990558;28;20461;-90
2023/08/06 13:29:40;;;;;;;13.73;12.30;;;16.80;99.90;;;;;;4991750;28;20464;-89
2023/08/06 13:32:15;;;;;;;12.90;11.67;;;16.90;99.90;;;;;;4995627;28;20533;-89
2023/08/06 13:34:43;;;;;;;14.00;12.33;;;16.80;99.90;;;;;;4994051;28;20583;-89
2023/08/06 13:37:11;;;;;;;13.87;11.47;;;15.90;99.90;;;;;;4990928;28;20482;-90
2023/08/06 13:39:42;;;;;;;12.87;11.47;;;16.70;99.90;;;;;;4989012;28;20502;-89
2023/08/06 13:42:19;;;;;;;16.07;11.67;;;;;;;;;;4987409;28;20447;-89
2023/08/06 13:44:47;;;;;;;16.23;12.50;;;;;;;;;;4990674;28;20455;-91
2023/08/06 13:47:21;;;;;;;12.50;10.90;;;16.60;99.90;;;;;;4991544;28;20472;-88
2023/08/06 13:50:03;;;;;;;12.80;11.17;;;16.40;99.90;;;;;;4986030;28;20444;-88
2023/08/06 13:52:38;;;;;;;13.83;10.90;;;;;;;;;;4993132;28;20428;-89
2023/08/06 13:55:08;;;;;;;12.47;11.27;;;16.60;99.90;;;;;;4992729;28;20420;-89
2023/08/06 13:57:38;;;;;;;13.77;12.23;;;;;;;;;;4990861;28;20469;-89
2023/08/06 14:00:09;;;;;;;13.60;11.10;;;16.50;99.90;;;;;;5000684;28;20439;-90
2023/08/06 14:02:47;;;;;;;13.17;11.87;;;16.60;99.90;;;;;;4998486;28;20453;-89
2023/08/06 14:05:23;;;;;;;13.90;12.50;;;16.60;99.90;;;;;;4983985;28;20473;-89
2023/08/06 14:07:51;;;;;;;13.80;12.40;;;;;;;;;;4982861;28;20527;-89
2023/08/06 14:10:20;;;;;;;13.63;10.93;;;;;;;;;;4983405;28;20480;-89
2023/08/06 14:12:49;;;;;;;14.90;13.40;;;;;;;;;;4983705;28;20456;-88
2023/08/06 14:15:19;;;;;;;18.23;14.60;;;16.70;99.90;;;;;;4980987;28;20475;-88
2023/08/06 14:17:51;;;;;;;16.37;13.80;;;16.70;99.90;;;;;;4981154;28;20444;-89
2023/08/06 14:20:19;;;;;;;19.73;14.70;;;16.80;99.90;;;;;;4981185;28;20443;-89
2023/08/06 14:22:46;;;;;;;19.30;14.07;;;16.80;99.90;;;;;;4979022;28;20875;-89
2023/08/06 14:25:13;;;;;;;15.47;13.03;;;16.40;99.90;;;;;;4978476;28;20506;-87
2023/08/06 14:27:39;;;;;;;16.77;14.67;;;16.80;99.90;;;;;;4978440;28;20984;-88
2023/08/06 14:30:07;;;;;;;20.33;17.40;;;16.80;99.90;;;;;;4985447;28;20500;-88
2023/08/06 14:32:37;;;;;;;17.93;14.53;;;16.80;99.90;;;;;;4980424;28;20459;-89
2023/08/06 14:35:05;;;;;;;16.67;13.30;;;16.90;99.90;;;;;;4981188;28;20462;-90
2023/08/06 14:37:33;;;;;;;25.23;15.30;;;16.70;99.90;;;;;;4990624;28;20483;-88
2023/08/06 14:40:00;;;;;;;16.40;13.50;;;16.60;99.90;;;;;;4997216;28;20551;-88
2023/08/06 14:42:29;;;;;;;12.63;10.20;;;16.70;99.90;;;;;;4997087;28;20483;-89
2023/08/06 14:45:03;;;;;;;12.57;11.17;;;16.20;99.90;;;;;;4987448;28;20467;-88
2023/08/06 14:47:30;;;;;;;17.70;13.37;;;;;;;;;;4983537;28;20483;-90
2023/08/06 14:53:04;;;;;;;16.97;12.83;;;16.30;99.90;;;;;;5108192;22;20505;-89
2023/08/06 14:55:38;;;;;;;14.30;11.53;;;;;;;;;;5018766;28;20441;-90
2023/08/06 14:58:05;;;;;;;13.40;12.00;;;;;;;;;;5015701;28;20498;-90
2023/08/06 15:11:21;;;;;;;13.37;11.43;;;16.30;99.90;;;;;;5011147;28;20484;-91
2023/08/06 15:14:00;;;;;;;13.90;11.83;;;16.40;99.90;;;;;;5007023;28;20450;-92
2023/08/06 15:17:16;;;;;;;11.37;10.00;;;16.50;99.90;;;;;;5008476;28;20532;-91
2023/08/06 15:19:44;;;;;;;14.23;10.63;;;16.40;99.90;;;;;;4986125;28;20481;-92
2023/08/06 15:22:28;;;;;;;11.70;9.90;;;16.40;99.90;;;;;;4987330;28;20439;-91
2023/08/06 15:24:59;;;;;;;13.50;11.73;;;16.50;99.90;;;;;;4984735;28;20460;-91
2023/08/06 15:27:27;;;;;;;14.50;11.60;;;16.50;99.90;;;;;;4988171;28;20483;-90
2023/08/06 15:29:58;;;;;;;14.40;12.80;;;16.30;99.90;;;;;;4992208;28;20975;-92
2023/08/06 16:01:14;;;;;;;7.07;6.13;;;16.20;99.90;;;;;;5153535;22;20509;-93
2023/08/06 17:37:30;;;;;;;11.37;7.17;;;16.10;99.90;;;;;;4288880;26;20478;-93
2023/08/06 17:48:02;;;;;;;16.50;12.20;;;16.10;99.90;;;;;;5024955;28;20451;-92
2023/08/06 17:50:35;;;;;;;23.00;14.13;;;16.10;99.90;;;;;;5029186;28;20497;-93
2023/08/06 17:53:16;;;;;;;15.67;10.97;;;16.10;99.90;;;;;;5030294;28;20545;-92
2023/08/06 17:56:16;;;;;;;17.43;14.03;;;16.10;99.90;;;;;;5038429;28;20456;-92
2023/08/06 17:58:44;;;;;;;11.80;9.73;;;16.20;99.90;;;;;;5013131;28;20496;-93
2023/08/06 18:01:15;;;;;;;8.73;7.50;;;16.10;99.90;;;;;;5032409;28;20453;-92
2023/08/06 18:03:50;;;;;;;11.73;8.87;;;16.00;99.90;;;;;;5026833;28;20454;-94
2023/08/06 18:06:18;;;;;;;6.07;5.50;;;;;;;;;;5023045;28;20465;-90
2023/08/06 18:08:48;;;;;;;5.50;5.00;;;15.80;99.90;;;;;;5026231;28;20531;-89
2023/08/06 18:11:17;;;;;;;6.20;5.57;;;;;;;;;;5026185;28;20483;-90
2023/08/06 18:13:45;;;;;;;5.03;4.63;;;;;;;;;;5033574;28;20446;-90
2023/08/06 18:16:35;;;;;;;7.33;5.90;;;15.80;99.90;;;;;;5036331;28;20470;-89
2023/08/06 18:19:05;;;;;;;5.17;4.77;;;15.80;99.90;;;;;;5039277;28;20469;-89
2023/08/06 18:21:33;;;;;;;5.17;4.57;;;;;;;;;;5039483;28;20464;-91
2023/08/06 18:24:01;;;;;;;7.10;6.17;;;15.70;99.90;;;;;;5039580;28;20497;-89
2023/08/06 18:26:28;;;;;;;8.03;5.90;;;;;;;;;;5039586;28;20412;-89
2023/08/06 18:28:55;;;;;;;5.80;5.30;;;15.50;99.90;;;;;;5038182;28;20446;-91
2023/08/06 18:31:22;;;;;;;7.33;5.70;;;;;;;;;;5026294;28;20498;-91
2023/08/06 19:20:08;;;;;;;9.83;7.40;;;15.80;99.90;;;;;;1343167;22;21505;-92
2023/08/06 20:21:52;;;;;;;12.17;6.87;;;15.80;99.90;;;;;;4796345;29;20489;-91
2023/08/06 20:25:08;;;;;;;15.00;8.97;;;15.90;99.90;;;;;;4871073;29;20480;-92
2023/08/06 20:28:18;;;;;;;12.00;6.93;;;16.00;99.90;;;;;;4956339;28;20453;-92
2023/08/06 21:12:21;;;;;;;3.93;3.63;;;15.80;29.30;;;;;;1239750;22;20488;-92
2023/08/06 21:20:33;;;;;;;4.70;4.30;;;15.70;98.50;;;;;;5009834;28;20482;-94
2023/08/06 21:23:00;;;;;;;4.30;3.90;;;;;;;;;;5011424;28;20515;-92
2023/08/06 21:25:48;;;;;;;;;;;;;;;;;;;;;
2023/08/06 21:29:04;;;;;;;4.67;3.00;;;15.50;1.00;;;;;;5017829;28;20436;-95
2023/08/06 21:34:42;;;;;;;4.00;3.30;;;;;;;;;;5018928;28;20445;-94
2023/08/06 22:24:44;;;;;;;5.33;3.40;;;15.10;82.00;;;;;;4275215;26;20451;-92
2023/08/06 22:27:13;;;;;;;4.73;4.10;;;;;;;;;;5039402;28;20478;-93
2023/08/06 22:30:04;;;;;;;4.70;4.30;;;15.20;99.90;;;;;;5038833;28;20423;-93
2023/08/06 22:32:34;;;;;;;5.30;3.20;;;;;;;;;;4991433;28;20445;-94
2023/08/06 22:35:05;;;;;;;4.10;3.70;;;;;;;;;;5015468;28;20473;-92
